sensor_id;sensor_type;location;lat;lon;timestamp;pressure;altitude;pressure_sealevel;temperature;humidity
10099;BME280;5089;42.656;23.374;2023-02-17T00:02:00;95740.34;;;5.31;54.72
10099;BME280;5089;42.656;23.374;2023-02-17T00:04:27;95742.34;;;5.35;55.04
10099;BME280;5089;42.656;23.374;2023-02-17T00:06:54;95740.19;;;5.44;54.87
10099;BME280;5089;42.656;23.374;2023-02-17T00:09:21;95739.22;;;5.38;55.36
10099;BME280;5089;42.656;23.374;2023-02-17T00:11:48;95734.53;;;5.40;55.19
10099;BME280;5089;42.656;23.374;2023-02-17T00:14:15;95729.50;;;5.26;56.41
10099;BME280;5089;42.656;23.374;2023-02-17T00:16:43;95734.34;;;5.35;54.94
10099;BME280;5089;42.656;23.374;2023-02-17T00:19:12;95735.06;;;5.24;54.90
10099;BME280;5089;42.656;23.374;2023-02-17T00:21:52;95734.94;;;5.13;55.86
10099;BME280;5089;42.656;23.374;2023-02-17T00:24:20;95652.78;;;4.54;55.57
10099;BME280;5089;42.656;23.374;2023-02-17T00:26:47;95653.31;;;4.37;56.15
10099;BME280;5089;42.656;23.374;2023-02-17T00:29:14;95733.63;;;4.97;56.32
10099;BME280;5089;42.656;23.374;2023-02-17T00:31:41;95698.97;;;4.66;57.12
10099;BME280;5089;42.656;23.374;2023-02-17T00:34:07;95726.72;;;4.89;56.39
10099;BME280;5089;42.656;23.374;2023-02-17T00:36:36;95711.16;;;4.86;56.14
10099;BME280;5089;42.656;23.374;2023-02-17T00:39:04;95707.06;;;4.84;56.25
10099;BME280;5089;42.656;23.374;2023-02-17T00:41:32;95710.38;;;4.79;56.03
10099;BME280;5089;42.656;23.374;2023-02-17T00:43:59;95653.28;;;4.44;56.26
10099;BME280;5089;42.656;23.374;2023-02-17T00:46:26;95709.41;;;4.74;56.23
10099;BME280;5089;42.656;23.374;2023-02-17T00:48:53;95730.03;;;4.78;56.66
10099;BME280;5089;42.656;23.374;2023-02-17T00:51:20;95694.84;;;4.76;57.15
10099;BME280;5089;42.656;23.374;2023-02-17T00:53:48;95684.13;;;4.83;56.93
10099;BME280;5089;42.656;23.374;2023-02-17T00:56:15;95721.22;;;5.09;56.71
10099;BME280;5089;42.656;23.374;2023-02-17T00:58:42;95712.97;;;5.17;57.14
10099;BME280;5089;42.656;23.374;2023-02-17T01:01:10;95701.03;;;5.20;56.90
10099;BME280;5089;42.656;23.374;2023-02-17T01:03:37;95672.16;;;4.98;56.67
10099;BME280;5089;42.656;23.374;2023-02-17T01:06:07;95705.88;;;5.29;56.16
10099;BME280;5089;42.656;23.374;2023-02-17T01:08:35;95632.88;;;4.87;56.43
10099;BME280;5089;42.656;23.374;2023-02-17T01:11:03;95628.38;;;4.88;54.70
10099;BME280;5089;42.656;23.374;2023-02-17T01:13:30;95707.09;;;5.33;54.79
10099;BME280;5089;42.656;23.374;2023-02-17T01:15:57;95699.88;;;5.16;54.64
10099;BME280;5089;42.656;23.374;2023-02-17T01:18:24;95686.59;;;5.09;55.32
10099;BME280;5089;42.656;23.374;2023-02-17T01:20:51;95660.47;;;4.93;55.67
10099;BME280;5089;42.656;23.374;2023-02-17T01:23:18;95696.97;;;5.17;56.86
10099;BME280;5089;42.656;23.374;2023-02-17T01:25:46;95690.47;;;5.13;55.97
10099;BME280;5089;42.656;23.374;2023-02-17T01:28:18;95677.38;;;5.05;55.41
10099;BME280;5089;42.656;23.374;2023-02-17T01:30:45;95627.31;;;4.64;56.04
10099;BME280;5089;42.656;23.374;2023-02-17T01:33:12;95683.59;;;4.99;56.67
10099;BME280;5089;42.656;23.374;2023-02-17T01:35:39;95677.25;;;5.00;56.23
10099;BME280;5089;42.656;23.374;2023-02-17T01:38:06;95691.34;;;5.07;56.98
10099;BME280;5089;42.656;23.374;2023-02-17T01:40:33;95690.91;;;5.10;56.82
10099;BME280;5089;42.656;23.374;2023-02-17T01:43:00;95678.41;;;5.11;56.72
10099;BME280;5089;42.656;23.374;2023-02-17T01:45:33;95686.31;;;5.17;56.04
10099;BME280;5089;42.656;23.374;2023-02-17T01:48:05;95673.38;;;4.96;56.05
10099;BME280;5089;42.656;23.374;2023-02-17T01:50:37;95687.78;;;5.13;56.83
10099;BME280;5089;42.656;23.374;2023-02-17T01:53:06;95673.28;;;5.09;56.29
10099;BME280;5089;42.656;23.374;2023-02-17T01:55:36;95701.50;;;5.17;56.61
10099;BME280;5089;42.656;23.374;2023-02-17T01:58:06;95697.84;;;5.11;56.04
10099;BME280;5089;42.656;23.374;2023-02-17T02:00:35;95692.16;;;5.08;56.02
10099;BME280;5089;42.656;23.374;2023-02-17T02:03:06;95688.44;;;5.09;55.57
10099;BME280;5089;42.656;23.374;2023-02-17T02:05:34;95700.72;;;5.10;55.73
10099;BME280;5089;42.656;23.374;2023-02-17T02:08:02;95664.63;;;4.89;55.27
10099;BME280;5089;42.656;23.374;2023-02-17T02:10:29;95651.00;;;4.72;56.10
10099;BME280;5089;42.656;23.374;2023-02-17T02:12:55;95685.19;;;5.07;55.86
10099;BME280;5089;42.656;23.374;2023-02-17T02:15:25;95688.47;;;5.02;55.40
10099;BME280;5089;42.656;23.374;2023-02-17T02:18:07;95676.59;;;5.05;55.50
10099;BME280;5089;42.656;23.374;2023-02-17T02:21:26;95670.06;;;5.01;56.55
10099;BME280;5089;42.656;23.374;2023-02-17T02:24:06;95679.84;;;4.82;57.03
10099;BME280;5089;42.656;23.374;2023-02-17T02:29:55;95646.00;;;4.58;57.31
10099;BME280;5089;42.656;23.374;2023-02-17T02:35:30;95676.22;;;4.70;56.67
10099;BME280;5089;42.656;23.374;2023-02-17T02:38:02;95679.72;;;4.70;56.81
10099;BME280;5089;42.656;23.374;2023-02-17T02:40:34;95623.56;;;4.16;57.46
10099;BME280;5089;42.656;23.374;2023-02-17T02:43:03;95663.19;;;4.24;57.71
10099;BME280;5089;42.656;23.374;2023-02-17T02:45:31;95659.78;;;4.17;57.76
10099;BME280;5089;42.656;23.374;2023-02-17T02:47:59;95654.72;;;4.02;58.28
10099;BME280;5089;42.656;23.374;2023-02-17T02:50:36;95679.19;;;4.17;58.19
10099;BME280;5089;42.656;23.374;2023-02-17T02:53:28;95644.53;;;3.93;58.89
10099;BME280;5089;42.656;23.374;2023-02-17T02:56:03;95689.66;;;4.12;58.73
10099;BME280;5089;42.656;23.374;2023-02-17T02:58:38;95693.53;;;4.16;58.34
10099;BME280;5089;42.656;23.374;2023-02-17T03:01:16;95642.44;;;4.01;59.14
10099;BME280;5089;42.656;23.374;2023-02-17T03:03:50;95690.38;;;4.32;58.78
10099;BME280;5089;42.656;23.374;2023-02-17T03:06:28;95677.50;;;4.29;58.96
10099;BME280;5089;42.656;23.374;2023-02-17T03:08:59;95681.38;;;4.33;57.81
10099;BME280;5089;42.656;23.374;2023-02-17T03:11:28;95687.28;;;4.35;57.72
10099;BME280;5089;42.656;23.374;2023-02-17T03:14:01;95668.50;;;4.30;58.08
10099;BME280;5089;42.656;23.374;2023-02-17T03:16:28;95685.25;;;4.37;58.76
10099;BME280;5089;42.656;23.374;2023-02-17T03:18:55;95683.78;;;4.41;57.94
10099;BME280;5089;42.656;23.374;2023-02-17T03:21:28;95693.41;;;4.42;57.44
10099;BME280;5089;42.656;23.374;2023-02-17T03:23:58;95690.31;;;4.46;58.04
10099;BME280;5089;42.656;23.374;2023-02-17T03:26:25;95675.78;;;4.41;58.13
10099;BME280;5089;42.656;23.374;2023-02-17T03:28:51;95640.75;;;4.13;58.07
10099;BME280;5089;42.656;23.374;2023-02-17T03:31:18;95696.66;;;4.44;58.23
10099;BME280;5089;42.656;23.374;2023-02-17T03:33:45;95684.41;;;4.43;57.92
10099;BME280;5089;42.656;23.374;2023-02-17T03:36:12;95681.34;;;4.40;57.24
10099;BME280;5089;42.656;23.374;2023-02-17T03:38:41;95677.56;;;4.23;58.43
10099;BME280;5089;42.656;23.374;2023-02-17T03:41:08;95573.25;;;3.70;57.83
10099;BME280;5089;42.656;23.374;2023-02-17T03:43:34;95637.91;;;4.08;57.24
10099;BME280;5089;42.656;23.374;2023-02-17T03:46:01;95695.91;;;4.37;57.84
10099;BME280;5089;42.656;23.374;2023-02-17T03:48:28;95667.28;;;4.26;57.68
10099;BME280;5089;42.656;23.374;2023-02-17T03:50:55;95678.88;;;4.38;58.43
10099;BME280;5089;42.656;23.374;2023-02-17T03:53:22;95693.41;;;4.42;58.10
10099;BME280;5089;42.656;23.374;2023-02-17T03:55:51;95662.75;;;4.33;58.62
10099;BME280;5089;42.656;23.374;2023-02-17T03:58:17;95639.13;;;4.12;59.26
10099;BME280;5089;42.656;23.374;2023-02-17T04:00:44;95669.03;;;4.46;58.48
10099;BME280;5089;42.656;23.374;2023-02-17T04:03:11;95676.19;;;4.45;57.90
10099;BME280;5089;42.656;23.374;2023-02-17T04:05:38;95649.91;;;4.24;58.39
10099;BME280;5089;42.656;23.374;2023-02-17T04:08:05;95625.09;;;4.30;58.32
10099;BME280;5089;42.656;23.374;2023-02-17T04:10:31;95663.63;;;4.59;57.78
10099;BME280;5089;42.656;23.374;2023-02-17T04:13:00;95685.09;;;4.64;58.43
10099;BME280;5089;42.656;23.374;2023-02-17T04:15:27;95683.59;;;4.74;58.08
10099;BME280;5089;42.656;23.374;2023-02-17T04:17:54;95673.13;;;4.73;57.20
10099;BME280;5089;42.656;23.374;2023-02-17T04:20:21;95656.78;;;4.69;56.73
10099;BME280;5089;42.656;23.374;2023-02-17T04:22:48;95673.56;;;4.70;57.36
10099;BME280;5089;42.656;23.374;2023-02-17T04:25:15;95676.50;;;4.62;57.81
10099;BME280;5089;42.656;23.374;2023-02-17T04:27:41;95685.47;;;4.67;57.41
10099;BME280;5089;42.656;23.374;2023-02-17T04:30:11;95686.72;;;4.65;57.33
10099;BME280;5089;42.656;23.374;2023-02-17T04:32:38;95666.72;;;4.56;57.06
10099;BME280;5089;42.656;23.374;2023-02-17T04:35:06;95672.84;;;4.56;58.07
10099;BME280;5089;42.656;23.374;2023-02-17T04:37:33;95668.94;;;4.59;59.23
10099;BME280;5089;42.656;23.374;2023-02-17T04:39:59;95660.75;;;4.54;57.94
10099;BME280;5089;42.656;23.374;2023-02-17T04:42:26;95681.41;;;4.65;58.83
10099;BME280;5089;42.656;23.374;2023-02-17T04:44:53;95688.53;;;4.71;58.56
10099;BME280;5089;42.656;23.374;2023-02-17T04:47:21;95675.28;;;4.58;57.77
10099;BME280;5089;42.656;23.374;2023-02-17T04:49:48;95683.53;;;4.50;58.35
10099;BME280;5089;42.656;23.374;2023-02-17T04:52:15;95683.59;;;4.36;59.11
10099;BME280;5089;42.656;23.374;2023-02-17T04:54:42;95690.75;;;4.42;59.65
10099;BME280;5089;42.656;23.374;2023-02-17T04:57:08;95679.50;;;4.40;58.53
10099;BME280;5089;42.656;23.374;2023-02-17T04:59:35;95607.97;;;3.75;59.01
10099;BME280;5089;42.656;23.374;2023-02-17T05:02:02;95651.44;;;4.07;60.13
10099;BME280;5089;42.656;23.374;2023-02-17T05:04:31;95675.50;;;4.18;60.13
10099;BME280;5089;42.656;23.374;2023-02-17T05:06:58;95689.00;;;4.23;60.76
10099;BME280;5089;42.656;23.374;2023-02-17T05:09:25;95718.47;;;4.28;60.31
10099;BME280;5089;42.656;23.374;2023-02-17T05:11:52;95714.28;;;4.39;60.52
10099;BME280;5089;42.656;23.374;2023-02-17T05:14:19;95705.47;;;4.45;59.47
10099;BME280;5089;42.656;23.374;2023-02-17T05:16:46;95706.53;;;4.37;59.75
10099;BME280;5089;42.656;23.374;2023-02-17T05:19:12;95698.34;;;4.32;59.86
10099;BME280;5089;42.656;23.374;2023-02-17T05:21:41;95687.34;;;4.29;59.78
10099;BME280;5089;42.656;23.374;2023-02-17T05:24:07;95687.28;;;4.35;60.25
10099;BME280;5089;42.656;23.374;2023-02-17T05:26:34;95731.84;;;4.53;60.01
10099;BME280;5089;42.656;23.374;2023-02-17T05:29:01;95713.81;;;4.55;59.98
10099;BME280;5089;42.656;23.374;2023-02-17T05:31:28;95697.88;;;4.49;59.36
10099;BME280;5089;42.656;23.374;2023-02-17T05:33:55;95627.69;;;4.05;59.00
10099;BME280;5089;42.656;23.374;2023-02-17T05:36:22;95607.47;;;3.98;59.01
10099;BME280;5089;42.656;23.374;2023-02-17T05:38:51;95710.50;;;4.60;59.36
10099;BME280;5089;42.656;23.374;2023-02-17T05:41:18;95721.94;;;4.67;59.47
10099;BME280;5089;42.656;23.374;2023-02-17T05:43:45;95729.22;;;4.78;60.35
10099;BME280;5089;42.656;23.374;2023-02-17T05:46:12;95733.25;;;4.87;59.15
10099;BME280;5089;42.656;23.374;2023-02-17T05:48:39;95714.88;;;4.79;59.89
10099;BME280;5089;42.656;23.374;2023-02-17T05:51:06;95731.97;;;4.96;59.03
10099;BME280;5089;42.656;23.374;2023-02-17T05:53:33;95702.94;;;4.88;59.17
10099;BME280;5089;42.656;23.374;2023-02-17T05:56:01;95727.78;;;5.13;57.62
10099;BME280;5089;42.656;23.374;2023-02-17T05:58:28;95728.50;;;5.20;57.70
10099;BME280;5089;42.656;23.374;2023-02-17T06:00:55;95745.63;;;5.37;56.88
10099;BME280;5089;42.656;23.374;2023-02-17T06:03:28;95709.31;;;5.12;57.70
10099;BME280;5089;42.656;23.374;2023-02-17T06:05:54;95735.53;;;5.39;56.82
10099;BME280;5089;42.656;23.374;2023-02-17T06:08:22;95736.41;;;5.33;56.66
10099;BME280;5089;42.656;23.374;2023-02-17T06:10:51;95725.84;;;5.20;56.95
10099;BME280;5089;42.656;23.374;2023-02-17T06:13:20;95740.09;;;5.32;57.97
10099;BME280;5089;42.656;23.374;2023-02-17T06:15:46;95727.16;;;5.36;57.28
10099;BME280;5089;42.656;23.374;2023-02-17T06:18:14;95740.53;;;5.54;56.82
10099;BME280;5089;42.656;23.374;2023-02-17T06:20:41;95730.09;;;5.52;57.25
10099;BME280;5089;42.656;23.374;2023-02-17T06:23:21;95751.38;;;5.77;56.53
10099;BME280;5089;42.656;23.374;2023-02-17T06:31:02;95752.72;;;6.11;56.59
10099;BME280;5089;42.656;23.374;2023-02-17T06:33:29;95733.06;;;6.05;55.99
10099;BME280;5089;42.656;23.374;2023-02-17T06:35:56;95748.56;;;6.15;55.28
10099;BME280;5089;42.656;23.374;2023-02-17T06:38:23;95765.34;;;6.22;55.54
10099;BME280;5089;42.656;23.374;2023-02-17T06:40:50;95761.34;;;6.31;55.40
10099;BME280;5089;42.656;23.374;2023-02-17T06:43:17;95758.47;;;6.44;54.99
10099;BME280;5089;42.656;23.374;2023-02-17T06:45:43;95743.81;;;6.35;53.12
10099;BME280;5089;42.656;23.374;2023-02-17T06:48:12;95742.72;;;6.73;53.80
10099;BME280;5089;42.656;23.374;2023-02-17T06:50:39;95751.19;;;6.99;53.20
10099;BME280;5089;42.656;23.374;2023-02-17T06:53:06;95764.97;;;7.26;51.86
10099;BME280;5089;42.656;23.374;2023-02-17T06:55:33;95758.38;;;7.40;50.67
10099;BME280;5089;42.656;23.374;2023-02-17T06:58:02;95751.66;;;7.49;50.75
10099;BME280;5089;42.656;23.374;2023-02-17T07:00:29;95758.66;;;7.73;49.91
10099;BME280;5089;42.656;23.374;2023-02-17T07:02:56;95687.69;;;7.36;49.65
10099;BME280;5089;42.656;23.374;2023-02-17T07:05:26;95760.13;;;8.16;48.97
10099;BME280;5089;42.656;23.374;2023-02-17T07:07:53;95729.72;;;8.22;47.12
10099;BME280;5089;42.656;23.374;2023-02-17T07:10:22;95765.00;;;8.54;48.65
10099;BME280;5089;42.656;23.374;2023-02-17T07:12:49;95762.25;;;8.77;47.69
10099;BME280;5089;42.656;23.374;2023-02-17T07:15:16;95688.81;;;8.50;46.90
10099;BME280;5089;42.656;23.374;2023-02-17T07:17:43;95756.97;;;9.10;45.96
10099;BME280;5089;42.656;23.374;2023-02-17T07:20:10;95763.22;;;9.44;46.87
10099;BME280;5089;42.656;23.374;2023-02-17T07:22:39;95768.34;;;9.62;46.23
10099;BME280;5089;42.656;23.374;2023-02-17T07:25:07;95767.47;;;9.90;45.46
10099;BME280;5089;42.656;23.374;2023-02-17T07:27:34;95721.50;;;9.86;45.33
10099;BME280;5089;42.656;23.374;2023-02-17T07:30:01;95765.22;;;10.37;44.41
10099;BME280;5089;42.656;23.374;2023-02-17T07:32:28;95705.16;;;10.10;43.16
10099;BME280;5089;42.656;23.374;2023-02-17T07:34:55;95720.09;;;10.39;43.30
10099;BME280;5089;42.656;23.374;2023-02-17T07:37:22;95784.25;;;10.95;42.41
10099;BME280;5089;42.656;23.374;2023-02-17T07:39:51;95766.09;;;11.08;41.68
10099;BME280;5089;42.656;23.374;2023-02-17T07:42:19;95773.19;;;11.19;42.21
10099;BME280;5089;42.656;23.374;2023-02-17T07:44:45;95784.94;;;11.34;41.55
10099;BME280;5089;42.656;23.374;2023-02-17T07:47:13;95771.16;;;11.57;41.04
10099;BME280;5089;42.656;23.374;2023-02-17T07:49:39;95780.78;;;11.75;40.60
10099;BME280;5089;42.656;23.374;2023-02-17T07:52:06;95772.56;;;11.92;40.29
10099;BME280;5089;42.656;23.374;2023-02-17T07:54:33;95775.00;;;11.93;39.04
10099;BME280;5089;42.656;23.374;2023-02-17T07:57:04;95761.75;;;11.87;39.54
10099;BME280;5089;42.656;23.374;2023-02-17T07:59:32;95739.69;;;11.90;39.49
10099;BME280;5089;42.656;23.374;2023-02-17T08:01:59;95756.81;;;12.16;39.12
10099;BME280;5089;42.656;23.374;2023-02-17T08:04:26;95754.19;;;12.21;39.25
10099;BME280;5089;42.656;23.374;2023-02-17T08:06:54;95772.72;;;12.54;38.93
10099;BME280;5089;42.656;23.374;2023-02-17T08:09:21;95724.13;;;12.49;38.32
10099;BME280;5089;42.656;23.374;2023-02-17T08:12:11;95762.75;;;12.59;37.00
10099;BME280;5089;42.656;23.374;2023-02-17T08:14:57;95765.28;;;11.92;37.39
10099;BME280;5089;42.656;23.374;2023-02-17T08:17:26;95773.91;;;12.26;38.46
10099;BME280;5089;42.656;23.374;2023-02-17T08:19:55;95758.34;;;12.43;37.98
10099;BME280;5089;42.656;23.374;2023-02-17T08:22:26;95712.28;;;12.45;37.80
10099;BME280;5089;42.656;23.374;2023-02-17T08:24:56;95764.50;;;12.91;37.66
10099;BME280;5089;42.656;23.374;2023-02-17T08:27:26;95770.84;;;13.27;36.97
10099;BME280;5089;42.656;23.374;2023-02-17T08:29:57;95757.69;;;13.60;37.34
10099;BME280;5089;42.656;23.374;2023-02-17T08:32:24;95749.31;;;13.82;36.50
10099;BME280;5089;42.656;23.374;2023-02-17T08:34:54;95752.56;;;14.09;36.27
10099;BME280;5089;42.656;23.374;2023-02-17T08:37:21;95697.94;;;14.02;35.59
10099;BME280;5089;42.656;23.374;2023-02-17T08:39:48;95712.00;;;14.35;34.78
10099;BME280;5089;42.656;23.374;2023-02-17T08:42:15;95755.66;;;14.82;34.22
10099;BME280;5089;42.656;23.374;2023-02-17T08:44:43;95762.94;;;14.92;35.24
10099;BME280;5089;42.656;23.374;2023-02-17T08:47:10;95759.06;;;15.13;33.95
10099;BME280;5089;42.656;23.374;2023-02-17T08:49:38;95753.78;;;15.36;34.17
10099;BME280;5089;42.656;23.374;2023-02-17T08:52:06;95733.63;;;15.58;33.67
10099;BME280;5089;42.656;23.374;2023-02-17T08:54:33;95754.44;;;16.01;33.15
10099;BME280;5089;42.656;23.374;2023-02-17T08:57:00;95754.75;;;16.28;31.76
10099;BME280;5089;42.656;23.374;2023-02-17T08:59:27;95732.59;;;16.45;32.50
10099;BME280;5089;42.656;23.374;2023-02-17T09:01:55;95731.31;;;16.66;31.84
10099;BME280;5089;42.656;23.374;2023-02-17T09:04:23;95689.16;;;16.74;31.57
10099;BME280;5089;42.656;23.374;2023-02-17T09:06:52;95744.88;;;17.32;30.85
10099;BME280;5089;42.656;23.374;2023-02-17T09:09:22;95691.19;;;17.24;30.64
10099;BME280;5089;42.656;23.374;2023-02-17T09:11:53;95754.16;;;17.87;29.96
10099;BME280;5089;42.656;23.374;2023-02-17T09:14:20;95716.28;;;18.09;30.38
10099;BME280;5089;42.656;23.374;2023-02-17T09:16:49;95742.28;;;18.61;28.61
10099;BME280;5089;42.656;23.374;2023-02-17T09:19:19;95739.31;;;18.90;28.86
10099;BME280;5089;42.656;23.374;2023-02-17T09:21:55;95705.59;;;19.00;27.93
10099;BME280;5089;42.656;23.374;2023-02-17T09:24:21;95738.03;;;19.37;27.28
10099;BME280;5089;42.656;23.374;2023-02-17T09:26:48;95729.56;;;19.52;26.70
10099;BME280;5089;42.656;23.374;2023-02-17T09:29:15;95727.59;;;18.76;26.41
10099;BME280;5089;42.656;23.374;2023-02-17T09:31:42;95691.28;;;18.67;27.98
10099;BME280;5089;42.656;23.374;2023-02-17T09:34:10;95735.13;;;19.20;27.47
10099;BME280;5089;42.656;23.374;2023-02-17T09:36:39;95703.72;;;19.36;26.87
10099;BME280;5089;42.656;23.374;2023-02-17T09:39:07;95734.56;;;19.73;26.21
10099;BME280;5089;42.656;23.374;2023-02-17T09:41:37;95712.13;;;19.98;26.05
10099;BME280;5089;42.656;23.374;2023-02-17T09:44:05;95719.38;;;20.24;25.60
10099;BME280;5089;42.656;23.374;2023-02-17T09:46:36;95717.78;;;20.46;26.45
10099;BME280;5089;42.656;23.374;2023-02-17T09:49:09;95713.06;;;20.68;26.34
10099;BME280;5089;42.656;23.374;2023-02-17T09:51:42;95715.22;;;20.89;25.12
10099;BME280;5089;42.656;23.374;2023-02-17T09:54:15;95714.31;;;21.02;25.28
10099;BME280;5089;42.656;23.374;2023-02-17T09:56:47;95697.50;;;21.17;24.58
10099;BME280;5089;42.656;23.374;2023-02-17T09:59:18;95693.28;;;21.11;23.51
10099;BME280;5089;42.656;23.374;2023-02-17T10:01:47;95709.78;;;20.97;22.48
10099;BME280;5089;42.656;23.374;2023-02-17T10:04:20;95689.44;;;20.72;21.68
10099;BME280;5089;42.656;23.374;2023-02-17T10:06:53;95603.06;;;19.84;21.78
10099;BME280;5089;42.656;23.374;2023-02-17T10:09:32;95700.78;;;20.57;22.49
10099;BME280;5089;42.656;23.374;2023-02-17T10:12:03;95679.91;;;20.61;21.92
10099;BME280;5089;42.656;23.374;2023-02-17T10:14:35;95670.97;;;20.69;21.37
10099;BME280;5089;42.656;23.374;2023-02-17T10:17:09;95687.00;;;20.62;21.45
10099;BME280;5089;42.656;23.374;2023-02-17T10:19:45;95665.59;;;20.56;21.17
10099;BME280;5089;42.656;23.374;2023-02-17T10:22:17;95686.19;;;20.62;21.10
10099;BME280;5089;42.656;23.374;2023-02-17T10:24:45;95641.66;;;20.61;21.45
10099;BME280;5089;42.656;23.374;2023-02-17T10:27:24;95663.75;;;20.82;21.54
10099;BME280;5089;42.656;23.374;2023-02-17T10:32:52;95662.47;;;21.36;21.13
10099;BME280;5089;42.656;23.374;2023-02-17T10:35:34;95610.91;;;21.04;19.83
10099;BME280;5089;42.656;23.374;2023-02-17T10:38:14;95671.13;;;21.21;20.14
10099;BME280;5089;42.656;23.374;2023-02-17T10:40:46;95636.16;;;20.44;20.50
10099;BME280;5089;42.656;23.374;2023-02-17T10:43:20;95666.47;;;20.12;21.30
10099;BME280;5089;42.656;23.374;2023-02-17T10:45:48;95649.78;;;19.47;21.36
10099;BME280;5089;42.656;23.374;2023-02-17T10:48:18;95653.09;;;19.08;22.11
10099;BME280;5089;42.656;23.374;2023-02-17T10:50:46;95630.94;;;18.74;22.33
10099;BME280;5089;42.656;23.374;2023-02-17T10:53:17;95654.66;;;18.59;22.50
10099;BME280;5089;42.656;23.374;2023-02-17T10:55:53;95579.50;;;18.31;22.39
10099;BME280;5089;42.656;23.374;2023-02-17T10:58:27;95645.91;;;18.76;22.41
10099;BME280;5089;42.656;23.374;2023-02-17T11:00:56;95632.16;;;18.68;22.93
10099;BME280;5089;42.656;23.374;2023-02-17T11:03:24;95606.72;;;18.86;22.67
10099;BME280;5089;42.656;23.374;2023-02-17T11:05:53;95631.91;;;19.05;22.77
10099;BME280;5089;42.656;23.374;2023-02-17T11:08:31;95607.09;;;19.06;22.43
10099;BME280;5089;42.656;23.374;2023-02-17T11:11:01;95634.72;;;19.49;21.85
10099;BME280;5089;42.656;23.374;2023-02-17T11:13:33;95634.09;;;19.52;22.09
10099;BME280;5089;42.656;23.374;2023-02-17T11:16:00;95567.97;;;18.89;22.12
10099;BME280;5089;42.656;23.374;2023-02-17T11:18:30;95630.41;;;19.48;21.97
10099;BME280;5089;42.656;23.374;2023-02-17T11:21:03;95553.78;;;18.78;22.40
10099;BME280;5089;42.656;23.374;2023-02-17T11:23:32;95585.47;;;19.10;22.42
10099;BME280;5089;42.656;23.374;2023-02-17T11:26:06;95631.66;;;19.42;22.21
10099;BME280;5089;42.656;23.374;2023-02-17T11:28:34;95645.00;;;19.16;22.26
10099;BME280;5089;42.656;23.374;2023-02-17T11:31:01;95609.28;;;19.18;22.21
10099;BME280;5089;42.656;23.374;2023-02-17T11:33:32;95616.78;;;19.35;22.34
10099;BME280;5089;42.656;23.374;2023-02-17T11:36:00;95554.69;;;18.87;22.58
10099;BME280;5089;42.656;23.374;2023-02-17T11:38:28;95616.72;;;19.26;22.57
10099;BME280;5089;42.656;23.374;2023-02-17T11:41:01;95567.59;;;18.82;22.63
10099;BME280;5089;42.656;23.374;2023-02-17T11:43:31;95617.03;;;18.75;23.09
10099;BME280;5089;42.656;23.374;2023-02-17T11:46:10;95596.88;;;18.76;23.12
10099;BME280;5089;42.656;23.374;2023-02-17T11:48:59;95623.94;;;18.95;23.68
10099;BME280;5089;42.656;23.374;2023-02-17T11:51:35;95547.88;;;18.62;23.29
10099;BME280;5089;42.656;23.374;2023-02-17T11:54:16;95603.28;;;18.94;23.09
10099;BME280;5089;42.656;23.374;2023-02-17T11:56:58;95541.84;;;18.52;23.68
10099;BME280;5089;42.656;23.374;2023-02-17T11:59:37;95564.69;;;18.64;23.61
10099;BME280;5089;42.656;23.374;2023-02-17T12:02:28;95572.56;;;18.52;23.70
10099;BME280;5089;42.656;23.374;2023-02-17T12:05:14;95599.69;;;18.44;24.00
10099;BME280;5089;42.656;23.374;2023-02-17T12:07:59;95546.25;;;17.93;24.36
10099;BME280;5089;42.656;23.374;2023-02-17T12:10:37;95585.19;;;18.21;24.28
10099;BME280;5089;42.656;23.374;2023-02-17T12:13:22;95589.97;;;17.83;24.91
10099;BME280;5089;42.656;23.374;2023-02-17T12:16:09;95589.34;;;17.73;25.11
10099;BME280;5089;42.656;23.374;2023-02-17T12:18:47;95589.19;;;17.83;24.97
10099;BME280;5089;42.656;23.374;2023-02-17T12:21:26;95528.84;;;17.48;24.85
10099;BME280;5089;42.656;23.374;2023-02-17T12:24:21;95562.06;;;17.78;25.10
10099;BME280;5089;42.656;23.374;2023-02-17T12:26:59;95567.69;;;17.68;25.08
10099;BME280;5089;42.656;23.374;2023-02-17T12:29:46;95568.19;;;17.70;25.03
10099;BME280;5089;42.656;23.374;2023-02-17T12:32:26;95506.28;;;17.34;25.25
10099;BME280;5089;42.656;23.374;2023-02-17T12:35:02;95560.25;;;17.73;25.27
10099;BME280;5089;42.656;23.374;2023-02-17T12:37:45;95519.44;;;17.60;25.29
10099;BME280;5089;42.656;23.374;2023-02-17T12:40:21;95538.88;;;17.67;25.19
10099;BME280;5089;42.656;23.374;2023-02-17T12:42:56;95534.53;;;17.66;24.92
10099;BME280;5089;42.656;23.374;2023-02-17T12:45:35;95559.72;;;17.58;25.23
10099;BME280;5089;42.656;23.374;2023-02-17T12:48:09;95547.03;;;17.67;46.07
10099;BME280;5089;42.656;23.374;2023-02-17T12:50:44;95532.56;;;17.98;30.89
10099;BME280;5089;42.656;23.374;2023-02-17T12:53:23;95505.38;;;18.12;28.90
10099;BME280;5089;42.656;23.374;2023-02-17T12:55:55;95543.84;;;18.33;31.13
10099;BME280;5089;42.656;23.374;2023-02-17T12:58:24;95529.97;;;18.07;26.72
10099;BME280;5089;42.656;23.374;2023-02-17T13:00:59;95486.22;;;17.63;27.14
10099;BME280;5089;42.656;23.374;2023-02-17T13:03:29;95500.94;;;17.89;27.12
10099;BME280;5089;42.656;23.374;2023-02-17T13:06:02;95532.25;;;18.14;29.85
10099;BME280;5089;42.656;23.374;2023-02-17T13:08:36;95542.22;;;18.32;30.07
10099;BME280;5089;42.656;23.374;2023-02-17T13:11:09;95527.72;;;18.36;31.44
10099;BME280;5089;42.656;23.374;2023-02-17T13:13:37;95464.13;;;18.32;27.00
10099;BME280;5089;42.656;23.374;2023-02-17T13:19:07;95507.94;;;18.44;25.70
10099;BME280;5089;42.656;23.374;2023-02-17T13:21:36;95538.81;;;18.53;25.78
10099;BME280;5089;42.656;23.374;2023-02-17T13:24:33;95432.75;;;17.72;25.32
10099;BME280;5089;42.656;23.374;2023-02-17T13:27:31;95432.63;;;17.49;25.23
10099;BME280;5089;42.656;23.374;2023-02-17T13:30:29;95435.41;;;17.31;28.86
10099;BME280;5089;42.656;23.374;2023-02-17T13:35:48;95378.22;;;16.95;28.97
10099;BME280;5089;42.656;23.374;2023-02-17T13:38:31;95420.75;;;16.86;25.51
10099;BME280;5089;42.656;23.374;2023-02-17T13:59:42;95501.44;;;16.99;29.04
10099;BME280;5089;42.656;23.374;2023-02-17T14:02:19;95495.66;;;16.87;25.40